Terminal Aerodrome Forecast
Issued by NWS

Home | Current Version | Previous Version | Text Only | Print | Product List | Glossary On
Versions: 1 2 3 4 5 6 7 8 9 10 11 12 13 14 15 16 17 18 19 20 21 22 23 24 25 26 27
000
FTUS43 KIND 251100 AAA
TAFBMG
TAF AMD
KBMG 251159Z 2512/2612 25010KT P6SM OVC025
     FM251600 22010KT P6SM BKN030
     FM251900 20010G18KT P6SM SCT030
     FM252300 19005KT P6SM SCT250
      AMD LTD TO CLD VIS AND WIND TIL 251400=

USA.gov is the U.S. government's official web portal to all federal, state and local government web resources and services.